createdAt,value
2018-12-06T00:15:29.201Z,1.80
2018-12-06T00:18:05.563Z,1.80
2018-12-06T00:20:37.871Z,1.90
2018-12-06T00:23:10.402Z,1.80
2018-12-06T00:25:42.384Z,1.90
2018-12-06T00:28:12.748Z,1.90
2018-12-06T00:30:45.144Z,1.90
2018-12-06T00:33:17.988Z,1.90
2018-12-06T00:35:49.978Z,1.90
2018-12-06T00:38:22.104Z,1.90
2018-12-06T00:40:54.223Z,2.00
2018-12-06T00:43:26.414Z,2.00
2018-12-06T00:45:58.687Z,2.00
2018-12-06T00:48:30.747Z,2.00
2018-12-06T00:51:01.094Z,2.00
2018-12-06T00:53:34.013Z,2.10
2018-12-06T00:56:06.972Z,2.10
2018-12-06T00:58:39.001Z,2.20
2018-12-06T01:01:11.605Z,2.20
2018-12-06T01:03:44.863Z,2.20
2018-12-06T01:06:17.949Z,2.30
2018-12-06T01:08:50.797Z,2.30
2018-12-06T01:11:27.167Z,2.40
2018-12-06T01:13:59.884Z,2.30
2018-12-06T01:16:32.349Z,2.40
2018-12-06T01:19:05.376Z,2.40
2018-12-06T01:21:37.612Z,2.40
2018-12-06T01:24:10.417Z,2.50
2018-12-06T01:26:42.087Z,2.50
2018-12-06T01:34:19.873Z,2.40
2018-12-06T01:36:52.081Z,2.50
2018-12-06T01:39:25.065Z,2.40
2018-12-06T01:41:57.164Z,2.40
2018-12-06T01:44:29.582Z,2.40
2018-12-06T01:47:01.696Z,2.40
2018-12-06T01:49:37.828Z,2.40
2018-12-06T01:52:09.993Z,2.30
2018-12-06T01:54:42.033Z,2.40
2018-12-06T01:57:14.068Z,2.40
2018-12-06T01:59:50.268Z,2.40
2018-12-06T02:02:22.507Z,2.30
2018-12-06T02:04:55.364Z,2.30
2018-12-06T02:07:27.803Z,2.30
2018-12-06T02:10:00.550Z,2.30
2018-12-06T02:12:36.755Z,2.30
2018-12-06T02:15:09.095Z,2.30
2018-12-06T02:17:41.460Z,2.30
2018-12-06T02:20:14.432Z,2.40
2018-12-06T02:22:46.523Z,2.40
2018-12-06T02:25:18.536Z,2.40
2018-12-06T02:27:50.868Z,2.40
2018-12-06T02:30:23.933Z,2.30
2018-12-06T02:32:56.865Z,2.30
2018-12-06T02:35:27.156Z,2.40
2018-12-06T02:37:59.298Z,2.30
2018-12-06T02:40:32.156Z,2.40
2018-12-06T02:43:04.301Z,2.30
2018-12-06T02:45:34.436Z,2.30
2018-12-06T02:48:06.444Z,2.30
2018-12-06T02:50:42.597Z,2.30
2018-12-06T02:53:14.976Z,2.30
2018-12-06T02:55:47.717Z,2.40
2018-12-06T02:58:19.789Z,2.30
2018-12-06T03:00:52.178Z,2.30
2018-12-06T03:03:29.148Z,2.30
2018-12-06T03:06:05.256Z,2.30
2018-12-06T03:08:38.168Z,2.30
2018-12-06T03:11:10.397Z,2.30
2018-12-06T03:13:42.802Z,2.30
2018-12-06T03:16:15.989Z,2.40
2018-12-06T03:18:48.865Z,2.40
2018-12-06T03:21:20.897Z,2.30
2018-12-06T03:23:53.304Z,2.40
2018-12-06T03:26:25.457Z,2.30
2018-12-06T03:28:57.600Z,2.30
2018-12-06T03:31:34.424Z,2.40
2018-12-06T03:34:07.503Z,2.40
2018-12-06T03:44:15.052Z,2.40
2018-12-06T03:46:47.277Z,2.30
2018-12-06T03:49:23.680Z,2.40
2018-12-06T03:51:55.734Z,2.30
2018-12-06T03:54:27.849Z,2.30
2018-12-06T03:56:59.856Z,2.30
2018-12-06T03:59:32.121Z,2.30
2018-12-06T04:02:04.345Z,2.30
2018-12-06T04:04:36.733Z,2.30
2018-12-06T04:07:09.696Z,2.30
2018-12-06T04:09:42.027Z,2.30
2018-12-06T04:12:18.223Z,2.30
2018-12-06T04:14:50.411Z,2.30
2018-12-06T04:17:23.609Z,2.30
2018-12-06T04:19:55.881Z,2.30
2018-12-06T04:22:27.940Z,2.30
2018-12-06T04:25:00.389Z,2.30
2018-12-06T04:27:32.519Z,2.30
2018-12-06T04:30:05.885Z,2.30
2018-12-06T04:32:38.815Z,2.30
2018-12-06T04:35:11.460Z,2.30
2018-12-06T04:37:44.409Z,2.30
2018-12-06T04:40:17.149Z,2.40
2018-12-06T04:42:49.320Z,2.40
2018-12-06T04:45:21.476Z,2.40
2018-12-06T04:47:53.531Z,2.50
2018-12-06T04:50:29.821Z,2.50
2018-12-06T04:53:01.984Z,2.50
2018-12-06T04:55:35.624Z,2.50
2018-12-06T04:58:12.063Z,2.50
2018-12-06T05:00:44.085Z,2.60
2018-12-06T05:03:21.059Z,2.60
2018-12-06T05:05:57.174Z,2.60
2018-12-06T05:08:30.074Z,2.70
2018-12-06T05:11:02.261Z,2.70
2018-12-06T05:13:35.425Z,2.70
2018-12-06T05:16:08.396Z,2.70
2018-12-06T05:18:41.353Z,2.70
2018-12-06T05:21:17.448Z,2.70
2018-12-06T05:23:50.218Z,2.70
2018-12-06T05:26:22.219Z,2.70
2018-12-06T05:28:54.249Z,2.70
2018-12-06T05:31:26.610Z,2.80
2018-12-06T05:34:02.807Z,2.70
2018-12-06T05:36:35.708Z,2.80
2018-12-06T05:39:08.432Z,2.70
2018-12-06T05:41:40.844Z,2.70
2018-12-06T05:44:13.083Z,2.70
2018-12-06T05:46:45.702Z,2.70
2018-12-06T05:49:17.785Z,2.60
2018-12-06T05:51:50.076Z,2.70
2018-12-06T05:54:22.118Z,2.70
2018-12-06T05:56:54.218Z,2.60
2018-12-06T05:59:27.132Z,2.60
2018-12-06T06:01:59.104Z,2.60
2018-12-06T06:04:31.255Z,2.60
2018-12-06T06:07:03.631Z,2.60
2018-12-06T06:09:39.844Z,2.60
2018-12-06T06:12:12.033Z,2.60
2018-12-06T06:14:44.276Z,2.60
2018-12-06T06:17:17.236Z,2.60
2018-12-06T06:19:53.361Z,2.60
2018-12-06T06:22:26.241Z,2.60
2018-12-06T06:24:58.263Z,2.60
2018-12-06T06:27:30.718Z,2.60
2018-12-06T06:30:03.557Z,2.70
2018-12-06T06:32:36.469Z,2.80
2018-12-06T06:35:08.905Z,2.80
2018-12-06T06:37:38.853Z,2.80
2018-12-06T06:40:10.895Z,2.80
2018-12-06T06:42:43.229Z,2.80
2018-12-06T06:45:15.261Z,2.90
2018-12-06T06:47:51.596Z,2.90
2018-12-06T06:50:27.701Z,2.90
2018-12-06T06:53:03.865Z,2.90
2018-12-06T06:55:39.990Z,3.00
2018-12-06T06:58:11.983Z,2.90
2018-12-06T07:00:44.223Z,3.00
2018-12-06T07:03:16.379Z,3.00
2018-12-06T07:05:48.664Z,3.00
2018-12-06T07:08:21.564Z,3.00
2018-12-06T07:10:53.656Z,3.10
2018-12-06T07:13:25.824Z,3.10
2018-12-06T07:15:56.014Z,3.10
2018-12-06T07:18:28.404Z,3.10
2018-12-06T07:21:05.440Z,3.10
2018-12-06T07:23:41.574Z,3.20
2018-12-06T07:26:13.695Z,3.20
2018-12-06T07:28:46.100Z,3.20
2018-12-06T07:31:18.235Z,3.20
2018-12-06T07:33:50.826Z,3.30
2018-12-06T07:36:23.708Z,3.30
2018-12-06T07:38:54.488Z,3.30
2018-12-06T07:41:26.518Z,3.30
2018-12-06T07:43:58.885Z,3.40
2018-12-06T07:46:31.684Z,3.40
2018-12-06T07:49:03.746Z,3.40
2018-12-06T07:51:35.886Z,3.40
2018-12-06T07:54:08.028Z,3.40
2018-12-06T07:56:40.343Z,3.50
2018-12-06T07:59:10.708Z,3.50
2018-12-06T08:01:43.552Z,3.50
2018-12-06T08:04:15.599Z,3.60
2018-12-06T08:06:47.963Z,3.60
2018-12-06T08:09:20.883Z,3.60
2018-12-06T08:11:56.924Z,3.60
2018-12-06T08:14:29.944Z,3.60
2018-12-06T08:17:06.123Z,3.60
2018-12-06T08:19:38.158Z,3.70
2018-12-06T08:22:14.365Z,3.70
2018-12-06T08:24:46.597Z,3.80
2018-12-06T08:27:18.631Z,3.90
2018-12-06T08:29:51.625Z,4.00
2018-12-06T08:32:23.892Z,4.10
2018-12-06T08:34:56.380Z,4.10
2018-12-06T08:37:32.638Z,4.10
2018-12-06T08:40:05.170Z,4.20
2018-12-06T08:42:42.439Z,4.20
2018-12-06T08:45:17.469Z,4.20
2018-12-06T08:47:50.481Z,4.20
2018-12-06T08:50:26.618Z,4.20
2018-12-06T09:03:07.532Z,4.20
2018-12-06T09:05:39.867Z,4.20
2018-12-06T09:08:12.911Z,4.20
2018-12-06T09:10:51.550Z,4.00
2018-12-06T09:13:24.072Z,3.90
2018-12-06T09:15:57.058Z,3.80
2018-12-06T09:18:29.270Z,3.80
2018-12-06T09:21:06.380Z,3.80
2018-12-06T09:23:38.840Z,3.80
2018-12-06T09:26:11.906Z,3.80
2018-12-06T09:28:44.032Z,3.90
2018-12-06T09:31:16.485Z,4.00
2018-12-06T09:33:59.616Z,4.20
2018-12-06T09:36:32.840Z,4.30
2018-12-06T09:39:09.777Z,4.50
2018-12-06T09:41:42.123Z,4.60
2018-12-06T09:44:15.168Z,4.60
2018-12-06T09:46:47.570Z,4.60
2018-12-06T09:49:20.037Z,4.70
2018-12-06T09:51:52.797Z,4.70
2018-12-06T09:54:25.788Z,4.70
2018-12-06T09:56:58.101Z,4.70
2018-12-06T09:59:30.168Z,4.70
2018-12-06T10:02:03.162Z,4.80
2018-12-06T10:14:46.555Z,5.20
2018-12-06T10:17:23.580Z,5.20
2018-12-06T10:19:54.592Z,5.10
2018-12-06T10:22:26.977Z,5.00
2018-12-06T10:24:58.688Z,5.00
2018-12-06T10:27:31.032Z,5.00
2018-12-06T10:30:04.730Z,5.00
2018-12-06T10:32:37.124Z,5.10
2018-12-06T10:35:10.195Z,5.00
2018-12-06T10:37:46.233Z,5.00
2018-12-06T10:40:22.632Z,4.90
2018-12-06T10:42:55.704Z,4.90
2018-12-06T10:45:27.979Z,4.90
2018-12-06T10:48:00.973Z,5.00
2018-12-06T10:50:33.046Z,5.10
2018-12-06T10:53:05.636Z,5.10
2018-12-06T10:55:38.336Z,5.20
2018-12-06T10:58:11.473Z,5.20
2018-12-06T11:00:49.139Z,5.20
2018-12-06T11:03:31.425Z,5.20
2018-12-06T11:06:05.424Z,5.10
2018-12-06T11:08:37.484Z,5.00
2018-12-06T11:11:14.094Z,5.00
2018-12-06T11:13:46.356Z,5.00
2018-12-06T11:16:18.597Z,5.10
2018-12-06T11:18:51.588Z,5.10
2018-12-06T11:21:28.714Z,5.10
2018-12-06T11:24:02.516Z,5.10
2018-12-06T11:26:34.910Z,5.20
2018-12-06T11:29:11.166Z,5.20
2018-12-06T11:31:44.194Z,5.20
2018-12-06T11:34:17.204Z,5.20
2018-12-06T11:36:54.605Z,5.10
2018-12-06T11:39:26.786Z,5.10
2018-12-06T11:42:02.955Z,5.10
2018-12-06T11:44:35.340Z,5.10
2018-12-06T11:47:08.317Z,5.10
2018-12-06T11:49:41.197Z,5.20
2018-12-06T11:52:13.753Z,5.20
2018-12-06T11:54:46.369Z,5.20
2018-12-06T11:57:22.461Z,5.20
2018-12-06T11:59:54.686Z,5.20
2018-12-06T12:03:05.375Z,5.20
2018-12-06T12:05:37.690Z,5.20
2018-12-06T12:08:09.968Z,5.20
2018-12-06T12:10:43.109Z,5.20
2018-12-06T12:13:14.322Z,5.10
2018-12-06T12:15:47.474Z,5.10
2018-12-06T12:18:19.619Z,5.10
2018-12-06T12:20:49.736Z,5.00
2018-12-06T12:23:21.788Z,5.00
2018-12-06T12:25:53.955Z,4.90
2018-12-06T12:28:26.263Z,4.90
2018-12-06T12:30:59.332Z,4.90
2018-12-06T12:33:29.369Z,4.80
2018-12-06T12:36:05.558Z,4.80
2018-12-06T12:38:44.697Z,4.80
2018-12-06T12:41:29.026Z,4.70
2018-12-06T12:44:06.067Z,4.60
2018-12-06T12:46:39.631Z,4.60
2018-12-06T12:49:18.039Z,4.60
2018-12-06T12:51:51.172Z,4.50
2018-12-06T12:54:23.095Z,4.40
2018-12-06T12:56:59.849Z,4.20
2018-12-06T12:59:33.281Z,4.10
2018-12-06T13:02:06.663Z,4.00
2018-12-06T13:04:39.621Z,3.90
2018-12-06T13:07:14.309Z,3.80
2018-12-06T13:09:47.269Z,3.70
2018-12-06T13:12:20.981Z,3.70
2018-12-06T13:14:58.853Z,3.60
2018-12-06T13:17:31.684Z,3.60
2018-12-06T13:20:05.301Z,3.60
2018-12-06T13:22:38.571Z,3.60
2018-12-06T13:25:20.207Z,3.60
2018-12-06T13:27:57.655Z,3.60
2018-12-06T13:30:31.597Z,3.50
2018-12-06T13:33:05.536Z,3.50
2018-12-06T13:35:40.114Z,3.40
2018-12-06T13:38:15.675Z,3.40
2018-12-06T13:40:57.497Z,3.40
2018-12-06T13:43:32.111Z,3.40
2018-12-06T13:46:05.424Z,3.40
2018-12-06T13:48:47.763Z,3.30
2018-12-06T13:51:32.087Z,3.20
2018-12-06T13:54:11.656Z,3.20
2018-12-06T13:56:48.476Z,3.20
2018-12-06T13:59:21.957Z,3.20
2018-12-06T14:01:55.755Z,3.20
2018-12-06T14:04:28.778Z,3.20
2018-12-06T14:07:05.499Z,3.10
2018-12-06T14:09:38.309Z,3.10
2018-12-06T14:12:11.513Z,3.10
2018-12-06T14:14:44.610Z,3.10
2018-12-06T14:17:32.445Z,3.00
2018-12-06T14:20:26.026Z,3.00
2018-12-06T14:23:05.164Z,3.10
2018-12-06T14:26:14.132Z,3.00
2018-12-06T14:28:54.243Z,3.10
2018-12-06T14:31:27.473Z,3.00
2018-12-06T14:34:04.126Z,3.00
2018-12-06T14:36:41.092Z,3.10
2018-12-06T14:39:18.312Z,3.10
2018-12-06T14:41:51.481Z,3.00
2018-12-06T14:44:24.089Z,3.00
2018-12-06T14:46:57.571Z,3.10
2018-12-06T14:49:30.032Z,3.10
2018-12-06T14:52:02.600Z,3.10
2018-12-06T14:54:35.333Z,3.10
2018-12-06T14:57:08.027Z,3.00
2018-12-06T14:59:40.769Z,3.00
2018-12-06T15:02:13.994Z,3.00
2018-12-06T15:04:46.293Z,3.00
2018-12-06T15:07:18.817Z,3.00
2018-12-06T15:09:51.174Z,3.10
2018-12-06T15:12:24.264Z,3.00
2018-12-06T15:14:57.472Z,3.10
2018-12-06T15:17:30.637Z,3.10
2018-12-06T15:20:03.563Z,3.10
2018-12-06T15:22:36.437Z,3.10
2018-12-06T15:25:09.705Z,3.10
2018-12-06T15:27:43.230Z,3.10
2018-12-06T15:30:16.222Z,3.10
2018-12-06T15:32:52.952Z,3.00
2018-12-06T15:35:25.747Z,3.00
2018-12-06T15:37:59.020Z,2.90
2018-12-06T15:40:32.883Z,3.00
2018-12-06T15:43:09.445Z,3.00
2018-12-06T15:46:03.448Z,3.00
2018-12-06T15:48:42.787Z,2.90
2018-12-06T15:51:16.197Z,2.90
2018-12-06T15:53:49.918Z,2.90
2018-12-06T15:56:31.569Z,2.90
2018-12-06T15:59:04.660Z,2.90
2018-12-06T16:01:41.744Z,2.90
2018-12-06T16:04:14.951Z,2.90
2018-12-06T16:06:47.529Z,2.90
2018-12-06T16:09:20.872Z,2.90
2018-12-06T16:11:57.428Z,2.90
2018-12-06T16:14:29.805Z,2.90
2018-12-06T16:17:06.423Z,2.90
2018-12-06T16:19:39.618Z,2.90
2018-12-06T16:22:12.854Z,2.90
2018-12-06T16:24:45.879Z,2.90
2018-12-06T16:27:18.255Z,3.00
2018-12-06T16:29:51.505Z,3.00
2018-12-06T16:32:22.225Z,2.90
2018-12-06T16:34:55.336Z,2.90
2018-12-06T16:37:28.399Z,2.90
2018-12-06T16:40:05.581Z,2.90
2018-12-06T16:42:38.049Z,2.90
2018-12-06T16:45:10.293Z,2.90
2018-12-06T16:47:46.651Z,2.90
2018-12-06T16:50:23.167Z,2.90
2018-12-06T16:52:55.312Z,2.90
2018-12-06T16:55:27.885Z,2.90
2018-12-06T16:58:00.290Z,2.90
2018-12-06T17:00:37.619Z,2.90
2018-12-06T17:03:10.207Z,2.90
2018-12-06T17:05:43.738Z,2.90
2018-12-06T17:08:16.494Z,2.90
2018-12-06T17:10:48.840Z,2.90
2018-12-06T17:13:25.417Z,2.90
2018-12-06T17:15:58.610Z,2.90
2018-12-06T17:18:32.714Z,2.90
2018-12-06T17:21:05.969Z,2.90
2018-12-06T17:23:38.594Z,2.90
2018-12-06T17:26:11.777Z,2.90
2018-12-06T17:28:44.827Z,2.90
2018-12-06T17:31:18.094Z,2.90
2018-12-06T17:44:04.338Z,2.90
2018-12-06T17:46:42.827Z,3.00
2018-12-06T17:54:20.909Z,3.00
2018-12-06T17:56:54.425Z,2.90
2018-12-06T17:59:27.444Z,2.90
2018-12-06T18:02:08.701Z,2.90
2018-12-06T18:04:45.680Z,3.00
2018-12-06T18:07:18.696Z,3.00
2018-12-06T18:09:51.590Z,3.00
2018-12-06T18:12:24.971Z,3.00
2018-12-06T18:15:02.169Z,3.00
2018-12-06T18:17:35.748Z,3.00
2018-12-06T18:20:09.282Z,3.00
2018-12-06T18:22:43.535Z,3.00
2018-12-06T18:25:16.975Z,3.00
2018-12-06T18:27:50.226Z,3.00
2018-12-06T18:30:23.744Z,3.00
2018-12-06T18:32:57.539Z,3.00
2018-12-06T18:35:34.476Z,2.90
2018-12-06T18:38:14.673Z,3.00
2018-12-06T18:40:54.721Z,3.00
2018-12-06T18:43:27.831Z,2.90
2018-12-06T18:46:01.500Z,2.90
2018-12-06T18:48:34.259Z,2.90
2018-12-06T18:51:12.613Z,2.90
2018-12-06T18:53:45.821Z,2.90
2018-12-06T18:56:19.499Z,2.90
2018-12-06T18:58:57.203Z,2.90
2018-12-06T19:01:29.673Z,2.90
2018-12-06T19:04:02.356Z,2.90
2018-12-06T19:06:42.743Z,2.90
2018-12-06T19:09:15.965Z,2.90
2018-12-06T19:11:49.389Z,2.90
2018-12-06T19:14:22.710Z,3.00
2018-12-06T19:16:57.576Z,2.90
2018-12-06T19:19:36.048Z,3.00
2018-12-06T19:22:08.973Z,3.00
2018-12-06T19:24:42.343Z,2.90
2018-12-06T19:27:19.535Z,3.00
2018-12-06T19:29:53.031Z,3.00
2018-12-06T19:32:26.967Z,3.00
2018-12-06T19:35:00.424Z,3.00
2018-12-06T19:37:33.933Z,3.00
2018-12-06T19:40:07.628Z,2.90
2018-12-06T19:42:40.228Z,2.90
2018-12-06T19:45:17.966Z,2.90
2018-12-06T19:47:51.349Z,2.90
2018-12-06T19:50:24.345Z,2.90
2018-12-06T19:52:57.673Z,2.90
2018-12-06T19:55:31.156Z,2.90
2018-12-06T20:00:40.242Z,2.90
2018-12-06T20:03:13.414Z,2.90
2018-12-06T20:05:46.542Z,2.90
2018-12-06T20:08:19.303Z,2.80
2018-12-06T20:10:51.961Z,2.90
2018-12-06T20:13:24.974Z,2.80
2018-12-06T20:15:58.150Z,2.80
2018-12-06T20:18:31.386Z,2.80
2018-12-06T20:21:04.669Z,2.80
2018-12-06T20:23:37.939Z,2.80
2018-12-06T20:26:15.246Z,2.80
2018-12-06T20:28:48.689Z,2.80
2018-12-06T20:31:21.735Z,2.80
2018-12-06T20:33:55.409Z,2.90
2018-12-06T20:36:28.559Z,2.90
2018-12-06T20:39:01.670Z,2.90
2018-12-06T20:41:35.160Z,2.80
2018-12-06T20:44:08.175Z,2.80
2018-12-06T20:46:41.051Z,2.80
2018-12-06T20:49:14.294Z,2.80
2018-12-06T20:51:46.753Z,2.80
2018-12-06T20:54:24.053Z,2.80
2018-12-06T20:56:57.574Z,2.90
2018-12-06T20:59:34.141Z,2.90
2018-12-06T21:02:06.391Z,2.90
2018-12-06T21:04:40.088Z,2.90
2018-12-06T21:25:16.749Z,2.90
2018-12-06T21:27:57.849Z,2.90
2018-12-06T21:30:44.621Z,2.90
2018-12-06T21:33:18.342Z,2.90
2018-12-06T21:35:51.828Z,2.90
2018-12-06T21:38:36.695Z,2.90
2018-12-06T21:41:15.840Z,2.90
2018-12-06T21:43:57.843Z,2.90
2018-12-06T21:46:36.130Z,2.90
2018-12-06T21:49:10.702Z,3.00
2018-12-06T21:51:50.560Z,3.00
2018-12-06T21:54:29.832Z,2.90
2018-12-06T21:57:03.349Z,2.90
2018-12-06T21:59:38.212Z,2.90
2018-12-06T22:02:24.358Z,2.90
2018-12-06T22:05:03.377Z,2.90
2018-12-06T22:07:47.649Z,2.90
2018-12-06T22:10:36.597Z,2.90
2018-12-06T22:13:31.796Z,2.90
2018-12-06T22:16:20.492Z,2.90
2018-12-06T22:19:05.635Z,2.90
2018-12-06T22:21:50.101Z,2.90
2018-12-06T22:29:33.274Z,3.00
2018-12-06T22:35:10.278Z,3.00
2018-12-06T22:40:44.422Z,3.00
2018-12-06T22:46:22.705Z,3.00
2018-12-06T22:49:00.178Z,3.00
2018-12-06T22:51:36.926Z,3.00
2018-12-06T22:54:16.406Z,3.00
2018-12-06T22:56:56.869Z,3.00
2018-12-06T22:59:44.928Z,3.00
2018-12-06T23:02:19.321Z,3.10
2018-12-06T23:04:56.787Z,3.10
2018-12-06T23:07:35.547Z,3.10
2018-12-06T23:10:11.220Z,3.10
2018-12-06T23:12:48.628Z,3.10
2018-12-06T23:15:27.870Z,3.10
2018-12-06T23:18:01.854Z,3.10
2018-12-06T23:20:40.498Z,3.10
2018-12-06T23:23:15.215Z,3.10
2018-12-06T23:25:48.663Z,3.10
2018-12-06T23:28:26.002Z,3.20
2018-12-06T23:31:10.223Z,3.20
2018-12-06T23:33:44.001Z,3.20
2018-12-06T23:39:10.042Z,3.20
2018-12-06T23:41:51.142Z,3.20
2018-12-06T23:44:25.614Z,3.10
2018-12-06T23:47:02.679Z,3.10
2018-12-06T23:49:45.931Z,3.20
2018-12-06T23:52:18.461Z,3.10
2018-12-06T23:54:51.733Z,3.10
2018-12-06T23:57:29.677Z,3.10
